Augusta Regional At Bush Field Augusta US
ICAO: KAGS
IATA: AGS
Category: Large
Scheduled Services: Yes

Elevation: 144 ft
TransAlt. 18000 ft.

Airport Communications:
APP/DEP:119.15
ATIS:132.75
CTAF:118.7
GND:121.9
TWR:118.7
UNICOM:122.95

KAGS Zoom In..

If you have problems with the map follow the link
https://www.worldairports.se/pages/airport.php?
ICAO=KAGS

Runways:

(A) RW 08 length 6002 ft width 75 ft
---- / hdg 82

(B) RW 17 length 8001 ft width 150 ft
ILS 111.75 / hdg 172

(C) RW 26 length 6002 ft width 75 ft
---- / hdg 262

(D) RW 35 length 8001 ft width 150 ft
ILS 110.50 / hdg 352

Location; KAGS
Day. 19 / Time. 12.53 Zulu
* Altimeter: 30.17
* Temperature: 13° c. 55.4°f.
* Wind from: 330° Speed 03 kn.
Dewpoint: 12° c.
Visibility: 7 Statute Miles.
Clouds: Overcast 1700 ft.

KAGS 191253Z 33003KT 7SM OVC017 13/12 A3017 RMK AO2 SLP216 T01280117


Wind From 330°
Speed 03 kn.

 
 
jpsmedia.com for Web Design worldairports.se 2018   terms of use